createdAt,value
2023-04-27T00:03:41.489Z,6.10
2023-04-27T00:09:09.533Z,6.10
2023-04-27T00:14:38.349Z,6.00
2023-04-27T00:20:09.029Z,6.00
2023-04-27T00:25:38.005Z,5.90
2023-04-27T00:31:06.887Z,5.90
2023-04-27T00:36:35.383Z,5.90
2023-04-27T00:42:03.177Z,5.90
2023-04-27T00:47:31.510Z,5.80
2023-04-27T00:52:59.902Z,5.90
2023-04-27T00:58:28.733Z,5.80
2023-04-27T01:03:57.225Z,5.90
2023-04-27T01:09:27.442Z,5.90
2023-04-27T01:14:56.842Z,5.80
2023-04-27T01:20:24.774Z,5.80
2023-04-27T01:25:53.700Z,5.80
2023-04-27T01:31:22.554Z,5.90
2023-04-27T01:42:19.054Z,5.90
2023-04-27T01:47:52.513Z,5.90
2023-04-27T01:53:21.993Z,5.90
2023-04-27T01:58:49.753Z,5.90
2023-04-27T02:04:19.830Z,5.90
2023-04-27T02:09:47.698Z,5.90
2023-04-27T02:15:16.108Z,5.90
2023-04-27T02:20:44.109Z,5.90
2023-04-27T02:26:22.614Z,5.80
2023-04-27T02:31:51.575Z,5.80
2023-04-27T02:37:19.411Z,5.80
2023-04-27T02:42:47.636Z,5.70
2023-04-27T02:53:43.593Z,5.60
2023-04-27T02:59:13.700Z,6.50
2023-04-27T03:04:43.252Z,5.50
2023-04-27T03:10:11.691Z,5.40
2023-04-27T03:15:39.618Z,5.30
2023-04-27T03:21:13.471Z,5.30
2023-04-27T03:26:41.688Z,5.20
2023-04-27T03:32:09.487Z,5.10
2023-04-27T03:37:39.130Z,5.10
2023-04-27T03:43:08.950Z,5.10
2023-04-27T03:48:38.105Z,5.10
2023-04-27T03:54:06.338Z,5.10
2023-04-27T03:59:34.197Z,5.00
2023-04-27T04:05:02.580Z,5.10
2023-04-27T04:10:30.729Z,5.10
2023-04-27T04:16:10.279Z,5.10
2023-04-27T04:32:38.013Z,5.20
2023-04-27T04:38:08.638Z,5.40
2023-04-27T04:43:36.513Z,5.50
2023-04-27T04:49:09.062Z,5.50
2023-04-27T04:54:37.263Z,5.70
2023-04-27T05:00:13.420Z,5.80
2023-04-27T05:05:41.268Z,5.90
2023-04-27T05:11:09.141Z,6.10
2023-04-27T05:16:36.977Z,6.20
2023-04-27T05:22:07.501Z,6.30
2023-04-27T05:27:35.778Z,6.50
2023-04-27T05:33:06.483Z,6.50
2023-04-27T05:44:04.077Z,6.70
2023-04-27T05:49:31.892Z,6.90
2023-04-27T05:55:04.251Z,7.00
2023-04-27T06:00:33.231Z,7.10
2023-04-27T06:06:02.789Z,7.30
2023-04-27T06:11:30.810Z,7.50
2023-04-27T06:16:58.943Z,7.70
2023-04-27T06:22:27.278Z,7.90
2023-04-27T06:27:58.631Z,8.10
2023-04-27T06:33:26.795Z,8.30
2023-04-27T06:38:58.330Z,8.50
2023-04-27T06:44:26.348Z,8.70
2023-04-27T06:49:54.346Z,8.90
2023-04-27T06:55:26.483Z,9.10
2023-04-27T07:00:54.512Z,9.30
2023-04-27T07:06:22.459Z,9.40
2023-04-27T07:11:50.274Z,9.60
2023-04-27T07:17:19.258Z,9.70
2023-04-27T07:22:47.147Z,9.90
2023-04-27T07:28:18.354Z,10.10
2023-04-27T07:33:48.057Z,12.10
2023-04-27T07:39:16.202Z,10.40
2023-04-27T07:44:44.338Z,10.70
2023-04-27T07:50:14.330Z,10.90
2023-04-27T07:55:44.684Z,10.90
2023-04-27T08:01:12.620Z,11.50
2023-04-27T08:06:40.979Z,11.40
2023-04-27T08:12:09.314Z,11.60
2023-04-27T08:17:37.317Z,11.80
2023-04-27T08:23:07.960Z,11.90
2023-04-27T08:28:36.036Z,12.10
2023-04-27T08:34:03.947Z,12.30
2023-04-27T08:39:33.188Z,12.50
2023-04-27T08:45:01.247Z,12.70
2023-04-27T08:50:29.974Z,12.90
2023-04-27T08:55:58.935Z,13.00
2023-04-27T09:01:27.727Z,13.10
2023-04-27T09:06:56.804Z,13.40
2023-04-27T09:12:25.730Z,13.60
2023-04-27T09:17:58.467Z,13.70
2023-04-27T09:23:39.027Z,13.90
2023-04-27T09:29:07.059Z,14.10
2023-04-27T09:34:41.360Z,14.10
2023-04-27T09:40:12.044Z,14.30
2023-04-27T09:45:45.999Z,14.50
2023-04-27T09:51:15.790Z,14.70
2023-04-27T09:57:08.874Z,14.80
2023-04-27T10:03:21.779Z,15.00
2023-04-27T10:08:51.682Z,14.90
2023-04-27T10:14:22.162Z,14.80
2023-04-27T10:20:03.064Z,15.10
2023-04-27T10:25:42.161Z,15.40
2023-04-27T10:31:14.957Z,15.70
2023-04-27T10:36:44.088Z,15.40
2023-04-27T10:42:12.219Z,15.20
2023-04-27T10:47:45.640Z,15.30
2023-04-27T10:53:15.652Z,15.70
2023-04-27T10:58:48.674Z,15.80
2023-04-27T11:04:18.679Z,16.00
2023-04-27T11:09:49.347Z,16.00
2023-04-27T11:15:18.554Z,16.00
2023-04-27T11:20:50.890Z,15.70
2023-04-27T11:26:26.817Z,15.60
2023-04-27T11:31:54.774Z,15.60
2023-04-27T11:37:27.779Z,15.70
2023-04-27T11:43:00.194Z,15.70
2023-04-27T11:48:28.860Z,15.50
2023-04-27T11:54:04.960Z,15.40
2023-04-27T11:59:33.110Z,15.60
2023-04-27T12:05:02.954Z,15.70
2023-04-27T12:10:31.385Z,15.60
2023-04-27T12:16:00.920Z,15.50
2023-04-27T12:21:32.176Z,15.40
2023-04-27T12:27:01.613Z,15.50
2023-04-27T12:32:31.879Z,15.30
2023-04-27T12:38:00.202Z,15.70
2023-04-27T12:43:28.870Z,15.70
2023-04-27T12:48:57.247Z,15.90
2023-04-27T12:54:25.281Z,16.30
2023-04-27T12:59:54.313Z,16.50
2023-04-27T13:05:22.449Z,16.70
2023-04-27T13:10:50.582Z,16.70
2023-04-27T13:16:22.035Z,16.90
2023-04-27T13:21:49.966Z,17.00
2023-04-27T13:27:18.046Z,16.90
2023-04-27T13:32:46.238Z,16.80
2023-04-27T13:38:15.364Z,16.60
2023-04-27T13:43:43.743Z,16.60
2023-04-27T13:49:12.880Z,16.60
2023-04-27T13:54:40.874Z,16.80
2023-04-27T14:00:11.514Z,17.30
2023-04-27T14:05:39.698Z,18.20
2023-04-27T14:11:07.687Z,18.40
2023-04-27T14:16:35.492Z,18.40
2023-04-27T14:22:04.823Z,18.10
2023-04-27T14:27:33.318Z,18.00
2023-04-27T14:33:01.832Z,17.80
2023-04-27T14:38:29.662Z,18.20
2023-04-27T14:44:00.026Z,18.30
2023-04-27T14:49:32.424Z,17.80
2023-04-27T14:55:01.154Z,17.40
2023-04-27T15:00:28.998Z,17.10
2023-04-27T15:05:56.932Z,16.80
2023-04-27T15:11:25.863Z,16.80
2023-04-27T15:16:53.717Z,16.70
2023-04-27T15:22:23.642Z,16.60
2023-04-27T15:27:51.528Z,16.40
2023-04-27T15:33:21.585Z,16.30
2023-04-27T15:38:52.014Z,16.00
2023-04-27T15:44:19.995Z,16.30
2023-04-27T15:49:56.898Z,16.40
2023-04-27T15:55:26.931Z,16.30
2023-04-27T16:00:55.909Z,16.50
2023-04-27T16:06:30.588Z,16.30
2023-04-27T16:11:59.701Z,16.10
2023-04-27T16:17:31.790Z,16.00
2023-04-27T16:22:59.670Z,16.20
2023-04-27T16:28:27.698Z,16.60
2023-04-27T16:33:55.592Z,16.40
2023-04-27T16:39:23.640Z,16.10
2023-04-27T16:44:51.548Z,16.00
2023-04-27T16:50:19.288Z,15.80
2023-04-27T16:55:47.451Z,15.70
2023-04-27T17:01:16.597Z,15.70
2023-04-27T17:06:47.117Z,15.70
2023-04-27T17:12:16.788Z,15.50
2023-04-27T17:17:45.031Z,15.30
2023-04-27T17:23:13.065Z,15.10
2023-04-27T17:28:41.260Z,15.00
2023-04-27T17:34:09.585Z,14.80
2023-04-27T17:39:37.909Z,14.70
2023-04-27T17:45:06.520Z,14.60
2023-04-27T17:50:36.050Z,14.40
2023-04-27T17:56:04.176Z,14.30
2023-04-27T18:01:32.237Z,14.30
2023-04-27T18:07:00.359Z,14.20
2023-04-27T18:12:28.442Z,14.40
2023-04-27T18:17:57.328Z,14.10
2023-04-27T18:23:25.286Z,13.90
2023-04-27T18:28:53.400Z,13.70
2023-04-27T18:34:23.282Z,13.50
2023-04-27T18:39:52.873Z,13.30
2023-04-27T18:45:21.374Z,13.10
2023-04-27T18:50:49.522Z,13.00
2023-04-27T18:56:17.401Z,12.80
2023-04-27T19:01:45.363Z,12.60
2023-04-27T19:07:13.219Z,12.50
2023-04-27T19:12:41.138Z,12.30
2023-04-27T19:18:11.142Z,12.10
2023-04-27T19:23:39.558Z,12.00
2023-04-27T19:29:07.437Z,11.80
2023-04-27T19:34:35.238Z,11.70
2023-04-27T19:40:03.386Z,11.60
2023-04-27T19:45:31.204Z,11.50
2023-04-27T19:50:59.247Z,11.40
2023-04-27T19:56:27.071Z,11.30
2023-04-27T20:01:55.106Z,11.10
2023-04-27T20:07:22.959Z,11.00
2023-04-27T20:12:56.934Z,10.80
2023-04-27T20:18:25.849Z,10.60
2023-04-27T20:23:55.676Z,10.50
2023-04-27T20:29:23.615Z,10.40
2023-04-27T20:34:51.405Z,10.30
2023-04-27T20:40:20.365Z,10.20
2023-04-27T20:45:48.282Z,10.10
2023-04-27T20:51:20.925Z,10.00
2023-04-27T20:56:52.186Z,9.80
2023-04-27T21:02:24.640Z,8.80
2023-04-27T21:07:52.881Z,9.60
2023-04-27T21:13:20.867Z,9.60
2023-04-27T21:18:52.341Z,9.50
2023-04-27T21:24:20.997Z,9.50
2023-04-27T21:29:50.162Z,9.30
2023-04-27T21:35:18.409Z,9.20
2023-04-27T21:40:46.885Z,9.10
2023-04-27T21:46:15.279Z,9.10
2023-04-27T21:51:43.481Z,9.00
2023-04-27T21:57:11.486Z,8.90
2023-04-27T22:02:42.669Z,8.80
2023-04-27T22:08:10.618Z,8.70
2023-04-27T22:13:38.500Z,8.60
2023-04-27T22:19:06.544Z,8.60
2023-04-27T22:24:34.462Z,8.50
2023-04-27T22:30:03.265Z,8.50
2023-04-27T22:35:33.311Z,8.40
2023-04-27T22:41:01.176Z,8.40
2023-04-27T22:46:29.004Z,8.40
2023-04-27T22:51:57.666Z,8.30
2023-04-27T22:57:28.161Z,8.30
2023-04-27T23:02:55.969Z,8.20
2023-04-27T23:08:25.323Z,8.20
2023-04-27T23:13:54.686Z,8.20
2023-04-27T23:19:23.035Z,8.10
2023-04-27T23:24:51.929Z,8.00
2023-04-27T23:30:20.698Z,8.00
2023-04-27T23:35:48.590Z,8.00
2023-04-27T23:41:16.409Z,7.90
2023-04-27T23:46:45.490Z,8.00
2023-04-27T23:52:13.374Z,8.00
2023-04-27T23:57:41.672Z,8.00
